createdAt,value
2022-09-26T00:01:31.040Z,13.50
2022-09-26T00:04:01.648Z,13.49
2022-09-26T00:06:29.055Z,13.46
2022-09-26T00:08:59.185Z,13.42
2022-09-26T00:11:31.239Z,13.38
2022-09-26T00:14:00.335Z,13.39
2022-09-26T00:16:27.475Z,13.42
2022-09-26T00:18:55.746Z,13.42
2022-09-26T00:21:23.211Z,13.40
2022-09-26T00:23:50.372Z,13.36
2022-09-26T00:26:18.431Z,13.33
2022-09-26T00:28:45.581Z,13.34
2022-09-26T00:31:32.414Z,13.38
2022-09-26T00:33:59.542Z,13.40
2022-09-26T00:36:37.586Z,13.37
2022-09-26T00:39:06.131Z,13.32
2022-09-26T00:41:33.425Z,13.29
2022-09-26T00:44:00.632Z,13.30
2022-09-26T00:46:39.153Z,13.32
2022-09-26T00:49:25.242Z,13.32
2022-09-26T00:52:13.054Z,13.28
2022-09-26T00:54:42.396Z,13.23
2022-09-26T00:57:12.218Z,13.20
2022-09-26T00:59:44.090Z,13.21
2022-09-26T01:02:11.224Z,13.25
2022-09-26T01:04:39.795Z,13.25
2022-09-26T01:07:09.101Z,13.23
2022-09-26T01:09:36.128Z,13.20
2022-09-26T01:12:03.283Z,13.16
2022-09-26T01:14:30.555Z,13.19
2022-09-26T01:16:57.717Z,13.22
2022-09-26T01:19:35.992Z,13.23
2022-09-26T01:22:27.646Z,13.21
2022-09-26T01:25:22.220Z,13.16
2022-09-26T01:28:07.796Z,13.12
2022-09-26T01:30:50.881Z,13.15
2022-09-26T01:33:36.404Z,13.20
2022-09-26T01:36:42.663Z,13.20
2022-09-26T01:39:33.876Z,13.16
2022-09-26T01:42:07.375Z,13.11
2022-09-26T01:44:34.346Z,13.14
2022-09-26T01:47:24.308Z,13.16
2022-09-26T01:50:01.707Z,13.15
2022-09-26T01:52:38.573Z,13.13
2022-09-26T01:55:44.278Z,13.10
2022-09-26T01:58:18.949Z,13.07
2022-09-26T02:00:47.350Z,13.09
2022-09-26T02:03:17.540Z,13.13
2022-09-26T02:05:57.349Z,13.11
2022-09-26T02:08:46.376Z,13.08
2022-09-26T02:11:16.792Z,13.06
2022-09-26T02:14:07.075Z,13.09
2022-09-26T02:16:42.687Z,13.13
2022-09-26T02:19:13.888Z,13.13
2022-09-26T02:21:41.459Z,13.10
2022-09-26T02:24:08.476Z,13.06
2022-09-26T02:26:35.934Z,13.06
2022-09-26T02:29:03.079Z,13.10
2022-09-26T02:31:32.260Z,13.08
2022-09-26T02:33:59.426Z,13.05
2022-09-26T02:36:27.273Z,13.00
2022-09-26T02:38:54.440Z,12.94
2022-09-26T02:41:51.922Z,12.94
2022-09-26T02:44:44.548Z,12.98
2022-09-26T02:47:33.203Z,12.97
2022-09-26T02:50:35.289Z,12.92
2022-09-26T02:53:24.253Z,12.86
2022-09-26T02:56:17.599Z,12.88
2022-09-26T02:58:54.780Z,12.89
2022-09-26T03:01:35.189Z,12.86
2022-09-26T03:04:19.427Z,12.82
2022-09-26T03:06:48.435Z,12.77
2022-09-26T03:09:15.599Z,12.73
2022-09-26T03:11:42.689Z,12.75
2022-09-26T03:14:09.934Z,12.78
2022-09-26T03:16:38.781Z,12.79
2022-09-26T03:19:15.073Z,12.77
2022-09-26T03:21:45.002Z,12.74
2022-09-26T03:24:13.481Z,12.69
2022-09-26T03:26:41.871Z,12.70
2022-09-26T03:29:09.047Z,12.74
2022-09-26T03:31:36.542Z,12.74
2022-09-26T03:34:06.278Z,12.70
2022-09-26T03:36:33.551Z,12.63
2022-09-26T03:39:02.012Z,12.58
2022-09-26T03:41:38.173Z,12.58
2022-09-26T03:44:26.418Z,12.61
2022-09-26T03:47:02.478Z,12.59
2022-09-26T03:49:29.832Z,12.56
2022-09-26T03:51:56.880Z,12.52
2022-09-26T03:54:24.559Z,12.47
2022-09-26T03:56:51.695Z,12.47
2022-09-26T03:59:18.840Z,12.49
2022-09-26T04:01:46.021Z,12.48
2022-09-26T04:04:15.394Z,12.43
2022-09-26T04:06:45.035Z,12.38
2022-09-26T04:09:16.869Z,12.34
2022-09-26T04:11:47.403Z,12.35
2022-09-26T04:14:14.665Z,12.38
2022-09-26T04:16:42.308Z,12.38
2022-09-26T04:19:16.208Z,12.36
2022-09-26T04:21:43.458Z,12.32
2022-09-26T04:24:17.175Z,12.26
2022-09-26T04:26:44.617Z,12.27
2022-09-26T04:29:11.940Z,12.31
2022-09-26T04:32:00.002Z,12.31
2022-09-26T04:34:33.409Z,12.28
2022-09-26T04:37:00.764Z,12.27
2022-09-26T04:39:27.920Z,12.31
2022-09-26T04:41:55.470Z,12.36
2022-09-26T04:44:22.532Z,12.40
2022-09-26T04:46:49.670Z,12.42
2022-09-26T04:49:17.289Z,12.41
2022-09-26T04:51:44.890Z,12.41
2022-09-26T04:54:11.944Z,12.48
2022-09-26T04:56:41.761Z,12.56
2022-09-26T04:59:08.908Z,12.60
2022-09-26T05:01:49.569Z,12.61
2022-09-26T05:04:27.820Z,12.61
2022-09-26T05:06:58.066Z,12.68
2022-09-26T05:09:30.789Z,12.77
2022-09-26T05:12:13.489Z,12.80
2022-09-26T05:14:44.507Z,12.82
2022-09-26T05:17:12.012Z,12.82
2022-09-26T05:19:39.238Z,12.83
2022-09-26T05:22:31.481Z,12.89
2022-09-26T05:25:17.366Z,12.97
2022-09-26T05:27:44.561Z,13.01
2022-09-26T05:30:13.225Z,13.03
2022-09-26T05:32:40.786Z,13.06
2022-09-26T05:35:08.637Z,13.14
2022-09-26T05:37:40.098Z,13.25
2022-09-26T05:40:26.567Z,13.33
2022-09-26T05:43:00.427Z,13.39
2022-09-26T05:45:27.944Z,13.41
2022-09-26T05:47:57.362Z,13.44
2022-09-26T05:50:25.477Z,13.50
2022-09-26T05:52:52.592Z,13.57
2022-09-26T05:55:23.812Z,13.60
2022-09-26T05:58:10.315Z,13.60
2022-09-26T06:01:16.457Z,13.59
2022-09-26T06:03:44.971Z,13.58
2022-09-26T06:06:17.866Z,13.62
2022-09-26T06:08:45.407Z,13.69
2022-09-26T06:11:31.371Z,13.75
2022-09-26T06:14:00.976Z,13.76
2022-09-26T06:16:28.670Z,13.76
2022-09-26T06:18:56.223Z,13.81
2022-09-26T06:21:23.704Z,13.88
2022-09-26T06:23:57.689Z,13.90
2022-09-26T06:26:26.482Z,13.89
2022-09-26T06:28:57.145Z,13.87
2022-09-26T06:31:26.498Z,13.90
2022-09-26T06:34:26.747Z,13.96
2022-09-26T06:37:01.633Z,13.96
2022-09-26T06:42:22.439Z,13.97
2022-09-26T06:45:12.172Z,14.06
2022-09-26T06:48:09.838Z,14.20
2022-09-26T06:51:05.897Z,14.29
2022-09-26T06:53:40.125Z,14.37
2022-09-26T06:56:15.516Z,14.47
2022-09-26T06:58:42.665Z,14.63
2022-09-26T07:01:10.339Z,14.78
2022-09-26T07:04:06.667Z,14.96
2022-09-26T07:07:07.605Z,15.09
2022-09-26T07:09:45.199Z,15.20
2022-09-26T07:12:45.631Z,15.32
2022-09-26T07:18:38.192Z,15.66
2022-09-26T07:21:22.680Z,15.70
2022-09-26T07:24:01.073Z,15.71
2022-09-26T07:26:28.317Z,15.70
2022-09-26T07:28:58.076Z,15.70
2022-09-26T07:31:28.357Z,15.68
2022-09-26T07:34:18.298Z,15.72
2022-09-26T07:36:47.739Z,15.78
2022-09-26T07:39:15.709Z,15.80
2022-09-26T07:41:46.961Z,15.83
2022-09-26T07:45:02.326Z,15.85
2022-09-26T07:47:22.623Z,15.88
2022-09-26T07:50:08.922Z,15.96
2022-09-26T07:52:56.649Z,16.04
2022-09-26T07:55:27.695Z,16.08
2022-09-26T07:58:14.298Z,16.10
2022-09-26T08:00:51.480Z,16.10
2022-09-26T08:03:41.161Z,16.07
2022-09-26T08:06:20.595Z,16.10
2022-09-26T08:08:48.487Z,16.12
2022-09-26T08:11:38.876Z,16.10
2022-09-26T08:14:32.346Z,16.02
2022-09-26T08:17:14.433Z,15.96
2022-09-26T08:19:41.948Z,15.91
2022-09-26T08:22:09.276Z,15.91
2022-09-26T08:24:36.416Z,15.93
2022-09-26T08:27:33.842Z,15.89
2022-09-26T08:30:02.932Z,15.82
2022-09-26T08:32:32.572Z,15.78
2022-09-26T08:35:00.452Z,15.73
2022-09-26T08:37:33.099Z,15.72
2022-09-26T08:40:19.100Z,15.76
2022-09-26T08:43:31.797Z,15.76
2022-09-26T08:46:49.300Z,15.72
2022-09-26T08:49:53.139Z,15.68
2022-09-26T08:52:35.548Z,15.65
2022-09-26T08:55:07.308Z,15.70
2022-09-26T08:57:42.947Z,15.74
2022-09-26T09:00:21.391Z,15.77
2022-09-26T09:03:15.542Z,15.80
2022-09-26T09:05:50.098Z,15.83
2022-09-26T09:08:24.941Z,15.87
2022-09-26T09:11:25.955Z,15.99
2022-09-26T09:18:13.760Z,16.18
2022-09-26T09:25:26.445Z,16.22
2022-09-26T09:31:27.071Z,16.40
2022-09-26T09:37:43.505Z,16.42
2022-09-26T09:40:37.419Z,16.48
2022-09-26T09:46:45.201Z,16.49
2022-09-26T09:49:20.094Z,16.47
2022-09-26T09:52:20.448Z,16.46
2022-09-26T09:55:13.300Z,16.53
2022-09-26T09:57:49.701Z,16.62
2022-09-26T10:00:24.514Z,16.65
2022-09-26T10:04:35.188Z,16.66
2022-09-26T10:07:52.072Z,16.63
2022-09-26T10:11:26.937Z,16.58
2022-09-26T10:14:33.881Z,16.60
2022-09-26T10:17:20.787Z,16.58
2022-09-26T10:19:51.393Z,16.53
2022-09-26T10:22:24.482Z,16.49
2022-09-26T10:24:54.019Z,16.45
2022-09-26T10:27:34.343Z,16.40
2022-09-26T10:30:06.521Z,16.38
2022-09-26T10:32:42.932Z,16.41
2022-09-26T10:36:00.114Z,16.47
2022-09-26T10:46:15.584Z,16.38
2022-09-26T10:49:24.838Z,16.41
2022-09-26T10:52:28.173Z,16.40
2022-09-26T10:54:57.507Z,16.36
2022-09-26T10:57:46.227Z,16.30
2022-09-26T11:00:38.838Z,16.23
2022-09-26T11:03:19.478Z,16.25
2022-09-26T11:06:30.173Z,16.26
2022-09-26T11:09:20.818Z,16.20
2022-09-26T11:12:29.408Z,16.16
2022-09-26T11:15:00.436Z,16.11
2022-09-26T11:17:52.304Z,16.11
2022-09-26T11:20:41.248Z,16.13
2022-09-26T11:23:34.497Z,16.15
2022-09-26T11:26:18.428Z,16.15
2022-09-26T11:30:54.019Z,16.16
2022-09-26T11:33:26.054Z,16.16
2022-09-26T11:36:31.368Z,16.16
2022-09-26T11:39:03.978Z,16.11
2022-09-26T11:41:40.434Z,16.06
2022-09-26T11:44:27.671Z,16.00
2022-09-26T11:47:34.666Z,16.02
2022-09-26T11:50:07.890Z,16.05
2022-09-26T11:52:57.720Z,16.04
2022-09-26T11:55:38.189Z,16.04
2022-09-26T11:58:44.501Z,16.05
2022-09-26T12:01:17.741Z,16.02
2022-09-26T12:04:08.060Z,16.03
2022-09-26T12:06:54.228Z,16.10
2022-09-26T12:09:53.074Z,16.14
2022-09-26T12:12:41.740Z,16.14
2022-09-26T12:15:20.502Z,16.13
2022-09-26T12:17:54.066Z,16.17
2022-09-26T12:20:27.089Z,16.23
2022-09-26T12:22:57.108Z,16.25
2022-09-26T12:25:34.670Z,16.22
2022-09-26T12:28:23.058Z,16.17
2022-09-26T12:31:08.534Z,16.10
2022-09-26T12:33:58.504Z,16.10
2022-09-26T12:37:02.123Z,16.15
2022-09-26T12:39:44.760Z,16.10
2022-09-26T12:42:49.673Z,16.04
2022-09-26T12:45:57.356Z,15.99
2022-09-26T12:48:54.015Z,16.01
2022-09-26T12:51:39.790Z,16.02
2022-09-26T12:54:28.854Z,16.00
2022-09-26T12:57:17.723Z,16.00
2022-09-26T12:59:44.673Z,16.00
2022-09-26T13:02:36.439Z,16.05
2022-09-26T13:05:23.871Z,16.12
2022-09-26T13:08:43.832Z,16.14
2022-09-26T13:11:42.603Z,16.11
2022-09-26T13:14:31.242Z,16.09
2022-09-26T13:17:16.848Z,16.16
2022-09-26T13:19:53.188Z,16.26
2022-09-26T13:22:34.808Z,16.35
2022-09-26T13:25:11.138Z,16.39
2022-09-26T13:27:42.088Z,16.38
2022-09-26T13:30:22.533Z,16.41
2022-09-26T13:32:54.060Z,16.46
2022-09-26T13:35:25.672Z,16.47
2022-09-26T13:38:11.975Z,16.46
2022-09-26T13:40:41.424Z,16.41
2022-09-26T13:43:24.306Z,16.40
2022-09-26T13:46:00.767Z,16.49
2022-09-26T13:48:37.532Z,16.64
2022-09-26T13:51:18.610Z,16.80
2022-09-26T13:53:58.017Z,16.97
2022-09-26T13:56:35.139Z,17.10
2022-09-26T13:59:11.362Z,17.17
2022-09-26T14:01:39.346Z,17.28
2022-09-26T14:04:17.884Z,17.36
2022-09-26T14:07:03.913Z,17.41
2022-09-26T14:09:56.278Z,17.40
2022-09-26T14:13:06.805Z,17.37
2022-09-26T14:15:49.598Z,17.30
2022-09-26T14:18:16.947Z,17.22
2022-09-26T14:20:55.071Z,17.21
2022-09-26T14:23:34.358Z,17.23
2022-09-26T14:26:12.361Z,17.26
2022-09-26T14:28:39.627Z,17.29
2022-09-26T14:31:26.110Z,17.29
2022-09-26T14:34:16.398Z,17.27
2022-09-26T14:36:44.993Z,17.31
2022-09-26T14:39:25.063Z,17.36
2022-09-26T14:41:52.295Z,17.38
2022-09-26T14:44:19.791Z,17.37
2022-09-26T14:46:54.105Z,17.35
2022-09-26T14:49:25.933Z,17.30
2022-09-26T14:52:00.660Z,17.24
2022-09-26T14:54:38.795Z,17.25
2022-09-26T14:57:08.349Z,17.29
2022-09-26T14:59:35.929Z,17.28
2022-09-26T15:02:18.349Z,17.26
2022-09-26T15:04:47.818Z,17.20
2022-09-26T15:07:17.963Z,17.15
2022-09-26T15:09:57.146Z,17.12
2022-09-26T15:12:32.140Z,17.11
2022-09-26T15:15:08.599Z,17.08
2022-09-26T15:17:39.542Z,17.05
2022-09-26T15:20:11.147Z,16.98
2022-09-26T15:22:39.875Z,16.93
2022-09-26T15:25:25.355Z,16.92
2022-09-26T15:27:56.813Z,16.92
2022-09-26T15:30:27.390Z,16.88
2022-09-26T15:32:58.197Z,16.82
2022-09-26T15:35:27.058Z,16.74
2022-09-26T15:38:01.687Z,16.65
2022-09-26T15:40:30.516Z,16.62
2022-09-26T15:43:09.980Z,16.59
2022-09-26T15:45:50.382Z,16.51
2022-09-26T15:48:20.598Z,16.39
2022-09-26T15:50:49.793Z,16.25
2022-09-26T15:53:41.412Z,16.15
2022-09-26T15:56:27.021Z,16.13
2022-09-26T15:59:09.406Z,16.10
2022-09-26T16:01:40.939Z,16.00
2022-09-26T16:04:18.795Z,15.90
2022-09-26T16:07:00.449Z,15.78
2022-09-26T16:09:43.285Z,15.66
2022-09-26T16:12:19.731Z,15.61
2022-09-26T16:14:51.897Z,15.57
2022-09-26T16:17:25.803Z,15.50
2022-09-26T16:19:57.153Z,15.41
2022-09-26T16:22:36.403Z,15.32
2022-09-26T16:25:16.029Z,15.24
2022-09-26T16:27:49.628Z,15.20
2022-09-26T16:30:28.861Z,15.18
2022-09-26T16:33:16.797Z,15.13
2022-09-26T16:35:45.388Z,15.08
2022-09-26T16:38:31.100Z,15.00
2022-09-26T16:41:08.683Z,14.94
2022-09-26T16:43:37.143Z,14.95
2022-09-26T16:46:10.093Z,14.92
2022-09-26T16:48:53.703Z,14.87
2022-09-26T16:51:25.832Z,14.81
2022-09-26T16:54:22.577Z,14.81
2022-09-26T16:56:50.546Z,14.83
2022-09-26T16:59:28.938Z,14.84
2022-09-26T17:02:00.348Z,14.82
2022-09-26T17:04:27.557Z,14.78
2022-09-26T17:06:54.605Z,14.78
2022-09-26T17:09:23.423Z,14.80
2022-09-26T17:11:52.178Z,14.79
2022-09-26T17:14:21.272Z,14.78
2022-09-26T17:16:55.335Z,14.77
2022-09-26T17:19:23.526Z,14.81
2022-09-26T17:21:53.265Z,14.87
2022-09-26T17:24:28.231Z,14.91
2022-09-26T17:26:57.295Z,14.94
2022-09-26T17:29:33.567Z,14.97
2022-09-26T17:32:25.689Z,15.04
2022-09-26T17:34:53.866Z,15.11
2022-09-26T17:37:22.246Z,15.11
2022-09-26T17:39:49.290Z,15.07
2022-09-26T17:42:17.567Z,15.03
2022-09-26T17:44:48.418Z,15.05
2022-09-26T17:47:16.371Z,15.08
2022-09-26T17:49:46.877Z,15.07
2022-09-26T17:52:37.190Z,15.03
2022-09-26T17:55:07.007Z,14.98
2022-09-26T17:57:38.256Z,14.91
2022-09-26T18:00:13.284Z,14.93
2022-09-26T18:02:46.963Z,14.96
2022-09-26T18:05:21.919Z,14.95
2022-09-26T18:07:52.531Z,14.93
2022-09-26T18:10:21.748Z,14.90
2022-09-26T18:12:50.032Z,14.91
2022-09-26T18:15:21.202Z,14.96
2022-09-26T18:17:50.001Z,14.98
2022-09-26T18:20:18.639Z,14.95
2022-09-26T18:22:47.156Z,14.92
2022-09-26T18:25:19.288Z,14.93
2022-09-26T18:27:46.466Z,14.95
2022-09-26T18:30:14.987Z,14.90
2022-09-26T18:32:42.388Z,14.84
2022-09-26T18:35:16.904Z,14.76
2022-09-26T18:37:43.949Z,14.71
2022-09-26T18:40:14.995Z,14.68
2022-09-26T18:42:44.693Z,14.61
2022-09-26T18:45:14.539Z,14.54
2022-09-26T18:47:43.296Z,14.44
2022-09-26T18:50:23.042Z,14.40
2022-09-26T18:52:57.374Z,14.39
2022-09-26T18:55:43.563Z,14.36
2022-09-26T18:58:32.327Z,14.32
2022-09-26T19:01:07.774Z,14.25
2022-09-26T19:03:37.172Z,14.24
2022-09-26T19:06:13.317Z,14.24
2022-09-26T19:08:41.937Z,14.20
2022-09-26T19:11:17.629Z,14.12
2022-09-26T19:13:46.848Z,14.03
2022-09-26T19:16:13.985Z,14.00
2022-09-26T19:18:41.516Z,13.99
2022-09-26T19:21:14.033Z,13.97
2022-09-26T19:23:41.081Z,13.91
2022-09-26T19:26:09.369Z,13.87
2022-09-26T19:28:36.505Z,13.86
2022-09-26T19:31:04.147Z,13.86
2022-09-26T19:33:34.012Z,13.85
2022-09-26T19:36:25.961Z,13.82
2022-09-26T19:39:15.624Z,13.77
2022-09-26T19:44:51.307Z,13.82
2022-09-26T19:47:40.695Z,13.81
2022-09-26T19:50:13.116Z,13.79
2022-09-26T19:52:40.126Z,13.76
2022-09-26T19:55:26.731Z,13.77
2022-09-26T19:57:54.296Z,13.80
2022-09-26T20:00:21.542Z,13.82
2022-09-26T20:02:50.965Z,13.80
2022-09-26T20:05:20.589Z,13.76
2022-09-26T20:07:47.893Z,13.79
2022-09-26T20:10:16.543Z,13.82
2022-09-26T20:12:44.253Z,13.84
2022-09-26T20:15:13.238Z,13.82
2022-09-26T20:17:44.677Z,13.79
2022-09-26T20:20:24.650Z,13.80
2022-09-26T20:22:51.829Z,13.84
2022-09-26T20:25:27.432Z,13.83
2022-09-26T20:27:55.217Z,13.79
2022-09-26T20:30:41.573Z,13.75
2022-09-26T20:33:09.272Z,13.77
2022-09-26T20:35:40.250Z,13.80
2022-09-26T20:38:11.088Z,13.80
2022-09-26T20:40:38.878Z,13.79
2022-09-26T20:43:08.546Z,13.77
2022-09-26T20:45:40.805Z,13.80
2022-09-26T20:48:08.862Z,13.84
2022-09-26T20:50:37.666Z,13.84
2022-09-26T20:53:10.905Z,13.82
2022-09-26T20:55:45.590Z,13.77
2022-09-26T20:58:15.896Z,13.78
2022-09-26T21:00:43.660Z,13.80
2022-09-26T21:03:12.023Z,13.79
2022-09-26T21:05:39.389Z,13.76
2022-09-26T21:08:18.929Z,13.71
2022-09-26T21:10:48.235Z,13.71
2022-09-26T21:13:15.381Z,13.74
2022-09-26T21:15:43.460Z,13.74
2022-09-26T21:18:22.623Z,13.73
2022-09-26T21:20:49.830Z,13.70
2022-09-26T21:23:18.192Z,13.71
2022-09-26T21:25:45.359Z,13.74
2022-09-26T21:28:26.844Z,13.74
2022-09-26T21:31:02.837Z,13.69
2022-09-26T21:33:30.104Z,13.64
2022-09-26T21:35:57.318Z,13.65
2022-09-26T21:38:24.382Z,13.67
2022-09-26T21:40:54.333Z,13.68
2022-09-26T21:43:23.262Z,13.65
2022-09-26T21:45:50.604Z,13.59
2022-09-26T21:48:17.662Z,13.58
2022-09-26T21:50:47.429Z,13.61
2022-09-26T21:53:19.648Z,13.60
2022-09-26T21:55:50.530Z,13.56
2022-09-26T21:58:21.400Z,13.51
2022-09-26T22:00:48.905Z,13.53
2022-09-26T22:03:15.920Z,13.56
2022-09-26T22:05:43.408Z,13.56
2022-09-26T22:08:10.526Z,13.54
2022-09-26T22:10:37.607Z,13.51
2022-09-26T22:13:04.721Z,13.52
2022-09-26T22:15:31.798Z,13.56
2022-09-26T22:17:58.764Z,13.57
2022-09-26T22:20:25.783Z,13.55
2022-09-26T22:22:53.009Z,13.52
2022-09-26T22:25:20.057Z,13.53
2022-09-26T22:27:49.356Z,13.57
2022-09-26T22:30:16.511Z,13.57
2022-09-26T22:32:43.554Z,13.55
2022-09-26T22:35:10.499Z,13.52
2022-09-26T22:37:37.596Z,13.54
2022-09-26T22:40:05.413Z,13.57
2022-09-26T22:42:32.564Z,13.58
2022-09-26T22:44:59.608Z,13.55
2022-09-26T22:47:26.513Z,13.52
2022-09-26T22:49:53.807Z,13.53
2022-09-26T22:52:20.856Z,13.58
2022-09-26T22:54:48.314Z,13.59
2022-09-26T22:57:16.893Z,13.56
2022-09-26T22:59:44.042Z,13.54
2022-09-26T23:02:11.716Z,13.55
2022-09-26T23:04:48.184Z,13.58
2022-09-26T23:07:17.164Z,13.58
2022-09-26T23:09:44.336Z,13.55
2022-09-26T23:12:11.464Z,13.53
2022-09-26T23:14:38.614Z,13.55
2022-09-26T23:17:05.927Z,13.60
2022-09-26T23:19:33.219Z,13.60
2022-09-26T23:22:00.249Z,13.59
2022-09-26T23:24:27.316Z,13.57
2022-09-26T23:26:54.477Z,13.59
2022-09-26T23:29:21.614Z,13.63
2022-09-26T23:31:51.121Z,13.64
2022-09-26T23:34:18.196Z,13.62
2022-09-26T23:36:45.417Z,13.59
2022-09-26T23:39:12.493Z,13.60
2022-09-26T23:41:39.612Z,13.64
2022-09-26T23:44:06.762Z,13.64
2022-09-26T23:48:21.439Z,13.60
2022-09-26T23:50:48.812Z,13.61
2022-09-26T23:53:16.110Z,13.65
2022-09-26T23:55:43.202Z,13.66
2022-09-26T23:58:10.645Z,13.65
